sensor_id;sensor_type;location;lat;lon;timestamp;P1;durP1;ratioP1;P2;durP2;ratioP2
13463;SDS011;6804;48.774;9.174;2022-12-16T00:01:58;25.47;;;17.43;;
13463;SDS011;6804;48.774;9.174;2022-12-16T00:04:25;27.67;;;17.47;;
13463;SDS011;6804;48.774;9.174;2022-12-16T00:06:58;25.60;;;17.17;;
13463;SDS011;6804;48.774;9.174;2022-12-16T00:09:26;27.27;;;17.93;;
13463;SDS011;6804;48.774;9.174;2022-12-16T00:11:56;27.13;;;17.73;;
13463;SDS011;6804;48.774;9.174;2022-12-16T00:14:26;23.87;;;16.73;;
13463;SDS011;6804;48.774;9.174;2022-12-16T00:16:55;27.20;;;17.63;;
13463;SDS011;6804;48.774;9.174;2022-12-16T00:19:23;29.07;;;18.70;;
13463;SDS011;6804;48.774;9.174;2022-12-16T00:21:50;27.53;;;18.00;;
13463;SDS011;6804;48.774;9.174;2022-12-16T00:24:17;25.70;;;17.30;;
13463;SDS011;6804;48.774;9.174;2022-12-16T00:26:44;27.43;;;17.80;;
13463;SDS011;6804;48.774;9.174;2022-12-16T00:29:14;27.50;;;18.07;;
13463;SDS011;6804;48.774;9.174;2022-12-16T00:31:41;25.67;;;17.53;;
13463;SDS011;6804;48.774;9.174;2022-12-16T00:34:13;24.03;;;17.70;;
13463;SDS011;6804;48.774;9.174;2022-12-16T00:36:41;24.53;;;16.93;;
13463;SDS011;6804;48.774;9.174;2022-12-16T00:39:09;27.63;;;18.27;;
13463;SDS011;6804;48.774;9.174;2022-12-16T00:41:36;27.63;;;17.43;;
13463;SDS011;6804;48.774;9.174;2022-12-16T00:44:04;26.10;;;17.40;;
13463;SDS011;6804;48.774;9.174;2022-12-16T00:46:31;26.83;;;17.73;;
13463;SDS011;6804;48.774;9.174;2022-12-16T00:49:01;24.80;;;16.87;;
13463;SDS011;6804;48.774;9.174;2022-12-16T00:51:30;27.70;;;18.40;;
13463;SDS011;6804;48.774;9.174;2022-12-16T00:53:57;27.30;;;18.23;;
13463;SDS011;6804;48.774;9.174;2022-12-16T00:56:27;26.77;;;16.90;;
13463;SDS011;6804;48.774;9.174;2022-12-16T00:58:54;24.17;;;17.50;;
13463;SDS011;6804;48.774;9.174;2022-12-16T01:01:21;26.63;;;18.37;;
13463;SDS011;6804;48.774;9.174;2022-12-16T01:03:51;23.83;;;17.30;;
13463;SDS011;6804;48.774;9.174;2022-12-16T01:06:22;27.03;;;16.87;;
13463;SDS011;6804;48.774;9.174;2022-12-16T01:08:50;23.13;;;16.17;;
13463;SDS011;6804;48.774;9.174;2022-12-16T01:11:18;24.07;;;16.17;;
13463;SDS011;6804;48.774;9.174;2022-12-16T01:13:45;28.33;;;17.43;;
13463;SDS011;6804;48.774;9.174;2022-12-16T01:16:15;25.60;;;16.83;;
13463;SDS011;6804;48.774;9.174;2022-12-16T01:18:46;25.50;;;16.40;;
13463;SDS011;6804;48.774;9.174;2022-12-16T01:21:14;24.07;;;16.87;;
13463;SDS011;6804;48.774;9.174;2022-12-16T01:23:42;24.40;;;16.50;;
13463;SDS011;6804;48.774;9.174;2022-12-16T01:26:12;24.97;;;15.97;;
13463;SDS011;6804;48.774;9.174;2022-12-16T01:28:41;27.00;;;17.43;;
13463;SDS011;6804;48.774;9.174;2022-12-16T01:31:08;24.23;;;16.30;;
13463;SDS011;6804;48.774;9.174;2022-12-16T01:33:37;25.80;;;17.97;;
13463;SDS011;6804;48.774;9.174;2022-12-16T01:36:09;24.60;;;16.70;;
13463;SDS011;6804;48.774;9.174;2022-12-16T01:38:36;24.60;;;15.73;;
13463;SDS011;6804;48.774;9.174;2022-12-16T01:41:04;25.57;;;16.37;;
13463;SDS011;6804;48.774;9.174;2022-12-16T01:43:33;23.13;;;15.37;;
13463;SDS011;6804;48.774;9.174;2022-12-16T01:46:02;26.73;;;16.23;;
13463;SDS011;6804;48.774;9.174;2022-12-16T01:48:34;26.43;;;16.67;;
13463;SDS011;6804;48.774;9.174;2022-12-16T01:51:08;25.93;;;16.73;;
13463;SDS011;6804;48.774;9.174;2022-12-16T01:53:39;24.27;;;16.07;;
13463;SDS011;6804;48.774;9.174;2022-12-16T01:56:13;22.63;;;15.30;;
13463;SDS011;6804;48.774;9.174;2022-12-16T01:58:44;24.90;;;16.10;;
13463;SDS011;6804;48.774;9.174;2022-12-16T02:01:12;25.57;;;16.67;;
13463;SDS011;6804;48.774;9.174;2022-12-16T02:03:44;24.73;;;15.77;;
13463;SDS011;6804;48.774;9.174;2022-12-16T02:06:12;23.23;;;15.80;;
13463;SDS011;6804;48.774;9.174;2022-12-16T02:08:39;24.87;;;15.57;;
13463;SDS011;6804;48.774;9.174;2022-12-16T02:11:10;25.60;;;17.30;;
13463;SDS011;6804;48.774;9.174;2022-12-16T02:13:54;23.23;;;15.73;;
13463;SDS011;6804;48.774;9.174;2022-12-16T02:16:42;26.70;;;16.43;;
13463;SDS011;6804;48.774;9.174;2022-12-16T02:19:23;25.00;;;15.60;;
13463;SDS011;6804;48.774;9.174;2022-12-16T02:22:12;23.63;;;15.80;;
13463;SDS011;6804;48.774;9.174;2022-12-16T02:24:58;23.00;;;15.77;;
13463;SDS011;6804;48.774;9.174;2022-12-16T02:27:51;24.07;;;16.80;;
13463;SDS011;6804;48.774;9.174;2022-12-16T02:30:39;23.30;;;15.53;;
13463;SDS011;6804;48.774;9.174;2022-12-16T02:33:23;23.27;;;15.90;;
13463;SDS011;6804;48.774;9.174;2022-12-16T02:36:16;24.23;;;15.60;;
13463;SDS011;6804;48.774;9.174;2022-12-16T02:38:57;22.83;;;14.60;;
13463;SDS011;6804;48.774;9.174;2022-12-16T02:41:31;25.33;;;16.47;;
13463;SDS011;6804;48.774;9.174;2022-12-16T02:44:08;26.40;;;16.20;;
13463;SDS011;6804;48.774;9.174;2022-12-16T02:46:50;22.77;;;14.87;;
13463;SDS011;6804;48.774;9.174;2022-12-16T02:52:20;23.23;;;16.27;;
13463;SDS011;6804;48.774;9.174;2022-12-16T02:54:50;22.20;;;14.70;;
13463;SDS011;6804;48.774;9.174;2022-12-16T02:57:25;26.17;;;16.47;;
13463;SDS011;6804;48.774;9.174;2022-12-16T03:00:06;23.27;;;15.80;;
13463;SDS011;6804;48.774;9.174;2022-12-16T03:02:39;23.03;;;14.50;;
13463;SDS011;6804;48.774;9.174;2022-12-16T03:05:13;23.20;;;16.23;;
13463;SDS011;6804;48.774;9.174;2022-12-16T03:07:45;22.57;;;15.13;;
13463;SDS011;6804;48.774;9.174;2022-12-16T03:10:16;22.77;;;15.27;;
13463;SDS011;6804;48.774;9.174;2022-12-16T03:12:45;22.50;;;16.23;;
13463;SDS011;6804;48.774;9.174;2022-12-16T03:15:17;25.13;;;16.00;;
13463;SDS011;6804;48.774;9.174;2022-12-16T03:17:48;24.40;;;16.40;;
13463;SDS011;6804;48.774;9.174;2022-12-16T03:20:21;21.77;;;14.27;;
13463;SDS011;6804;48.774;9.174;2022-12-16T03:22:52;20.90;;;14.50;;
13463;SDS011;6804;48.774;9.174;2022-12-16T03:25:25;21.23;;;15.07;;
13463;SDS011;6804;48.774;9.174;2022-12-16T03:27:57;22.80;;;14.93;;
13463;SDS011;6804;48.774;9.174;2022-12-16T03:30:34;23.17;;;15.50;;
13463;SDS011;6804;48.774;9.174;2022-12-16T03:33:07;23.27;;;14.87;;
13463;SDS011;6804;48.774;9.174;2022-12-16T03:35:42;22.53;;;15.63;;
13463;SDS011;6804;48.774;9.174;2022-12-16T03:38:14;23.13;;;15.53;;
13463;SDS011;6804;48.774;9.174;2022-12-16T03:40:45;23.00;;;13.93;;
13463;SDS011;6804;48.774;9.174;2022-12-16T03:43:12;20.70;;;14.33;;
13463;SDS011;6804;48.774;9.174;2022-12-16T03:45:44;21.17;;;15.20;;
13463;SDS011;6804;48.774;9.174;2022-12-16T03:48:15;21.17;;;14.67;;
13463;SDS011;6804;48.774;9.174;2022-12-16T03:50:44;20.07;;;14.53;;
13463;SDS011;6804;48.774;9.174;2022-12-16T03:53:11;21.43;;;14.87;;
13463;SDS011;6804;48.774;9.174;2022-12-16T03:55:39;21.43;;;13.83;;
13463;SDS011;6804;48.774;9.174;2022-12-16T03:58:06;23.10;;;14.60;;
13463;SDS011;6804;48.774;9.174;2022-12-16T04:00:36;20.63;;;13.60;;
13463;SDS011;6804;48.774;9.174;2022-12-16T04:03:03;22.73;;;15.80;;
13463;SDS011;6804;48.774;9.174;2022-12-16T04:05:32;19.40;;;12.80;;
13463;SDS011;6804;48.774;9.174;2022-12-16T04:08:07;19.03;;;13.60;;
13463;SDS011;6804;48.774;9.174;2022-12-16T04:10:35;19.03;;;13.50;;
13463;SDS011;6804;48.774;9.174;2022-12-16T04:13:19;20.47;;;12.80;;
13463;SDS011;6804;48.774;9.174;2022-12-16T04:16:04;21.27;;;14.07;;
13463;SDS011;6804;48.774;9.174;2022-12-16T04:18:54;19.53;;;12.63;;
13463;SDS011;6804;48.774;9.174;2022-12-16T04:21:40;20.77;;;13.07;;
13463;SDS011;6804;48.774;9.174;2022-12-16T04:24:27;19.90;;;12.63;;
13463;SDS011;6804;48.774;9.174;2022-12-16T04:26:56;19.03;;;13.43;;
13463;SDS011;6804;48.774;9.174;2022-12-16T04:29:40;19.27;;;12.10;;
13463;SDS011;6804;48.774;9.174;2022-12-16T04:32:21;20.97;;;12.43;;
13463;SDS011;6804;48.774;9.174;2022-12-16T04:34:51;16.53;;;11.67;;
13463;SDS011;6804;48.774;9.174;2022-12-16T04:37:19;17.43;;;12.17;;
13463;SDS011;6804;48.774;9.174;2022-12-16T04:40:03;15.57;;;11.30;;
13463;SDS011;6804;48.774;9.174;2022-12-16T04:42:52;16.83;;;11.73;;
13463;SDS011;6804;48.774;9.174;2022-12-16T04:45:39;16.90;;;11.13;;
13463;SDS011;6804;48.774;9.174;2022-12-16T04:48:23;14.47;;;10.50;;
13463;SDS011;6804;48.774;9.174;2022-12-16T04:51:07;16.83;;;11.27;;
13463;SDS011;6804;48.774;9.174;2022-12-16T04:53:53;15.37;;;10.90;;
13463;SDS011;6804;48.774;9.174;2022-12-16T04:56:38;17.30;;;10.97;;
13463;SDS011;6804;48.774;9.174;2022-12-16T04:59:22;16.17;;;11.27;;
13463;SDS011;6804;48.774;9.174;2022-12-16T05:02:07;18.83;;;12.20;;
13463;SDS011;6804;48.774;9.174;2022-12-16T05:04:51;17.57;;;11.60;;
13463;SDS011;6804;48.774;9.174;2022-12-16T05:07:36;17.13;;;12.20;;
13463;SDS011;6804;48.774;9.174;2022-12-16T05:10:24;16.93;;;11.37;;
13463;SDS011;6804;48.774;9.174;2022-12-16T05:13:11;18.23;;;11.67;;
13463;SDS011;6804;48.774;9.174;2022-12-16T05:15:56;17.00;;;10.77;;
13463;SDS011;6804;48.774;9.174;2022-12-16T05:18:40;16.97;;;11.47;;
13463;SDS011;6804;48.774;9.174;2022-12-16T05:21:25;19.60;;;11.00;;
13463;SDS011;6804;48.774;9.174;2022-12-16T05:24:25;17.50;;;11.23;;
13463;SDS011;6804;48.774;9.174;2022-12-16T05:27:11;19.70;;;11.63;;
13463;SDS011;6804;48.774;9.174;2022-12-16T05:29:55;16.33;;;10.80;;
13463;SDS011;6804;48.774;9.174;2022-12-16T05:32:40;16.80;;;10.97;;
13463;SDS011;6804;48.774;9.174;2022-12-16T05:35:28;15.67;;;10.77;;
13463;SDS011;6804;48.774;9.174;2022-12-16T05:38:13;15.80;;;10.37;;
13463;SDS011;6804;48.774;9.174;2022-12-16T05:41:00;16.57;;;10.53;;
13463;SDS011;6804;48.774;9.174;2022-12-16T05:43:45;16.53;;;9.97;;
13463;SDS011;6804;48.774;9.174;2022-12-16T05:46:30;14.40;;;10.03;;
13463;SDS011;6804;48.774;9.174;2022-12-16T05:49:23;18.60;;;10.73;;
13463;SDS011;6804;48.774;9.174;2022-12-16T05:52:07;16.40;;;10.97;;
13463;SDS011;6804;48.774;9.174;2022-12-16T05:55:00;13.60;;;9.73;;
13463;SDS011;6804;48.774;9.174;2022-12-16T05:57:48;15.13;;;11.13;;
13463;SDS011;6804;48.774;9.174;2022-12-16T06:00:34;16.97;;;11.07;;
13463;SDS011;6804;48.774;9.174;2022-12-16T06:03:19;18.20;;;10.67;;
13463;SDS011;6804;48.774;9.174;2022-12-16T06:06:04;18.10;;;11.57;;
13463;SDS011;6804;48.774;9.174;2022-12-16T06:08:49;14.93;;;10.87;;
13463;SDS011;6804;48.774;9.174;2022-12-16T06:11:33;15.23;;;10.33;;
13463;SDS011;6804;48.774;9.174;2022-12-16T06:14:18;15.47;;;10.27;;
13463;SDS011;6804;48.774;9.174;2022-12-16T06:17:04;12.93;;;9.27;;
13463;SDS011;6804;48.774;9.174;2022-12-16T06:19:48;17.10;;;11.47;;
13463;SDS011;6804;48.774;9.174;2022-12-16T06:22:33;15.30;;;10.67;;
13463;SDS011;6804;48.774;9.174;2022-12-16T06:25:29;14.93;;;10.07;;
13463;SDS011;6804;48.774;9.174;2022-12-16T06:28:14;16.37;;;11.27;;
13463;SDS011;6804;48.774;9.174;2022-12-16T06:30:58;15.03;;;10.10;;
13463;SDS011;6804;48.774;9.174;2022-12-16T06:33:47;15.30;;;9.43;;
13463;SDS011;6804;48.774;9.174;2022-12-16T06:36:31;15.97;;;10.27;;
13463;SDS011;6804;48.774;9.174;2022-12-16T06:39:16;15.70;;;10.20;;
13463;SDS011;6804;48.774;9.174;2022-12-16T06:42:01;16.67;;;11.20;;
13463;SDS011;6804;48.774;9.174;2022-12-16T06:44:45;16.60;;;10.43;;
13463;SDS011;6804;48.774;9.174;2022-12-16T06:47:30;15.73;;;10.40;;
13463;SDS011;6804;48.774;9.174;2022-12-16T06:50:15;17.13;;;10.97;;
13463;SDS011;6804;48.774;9.174;2022-12-16T06:53:00;15.30;;;10.33;;
13463;SDS011;6804;48.774;9.174;2022-12-16T06:55:44;17.20;;;10.77;;
13463;SDS011;6804;48.774;9.174;2022-12-16T06:58:32;16.43;;;10.77;;
13463;SDS011;6804;48.774;9.174;2022-12-16T07:01:16;15.50;;;10.90;;
13463;SDS011;6804;48.774;9.174;2022-12-16T07:04:04;17.23;;;10.13;;
13463;SDS011;6804;48.774;9.174;2022-12-16T07:06:53;15.33;;;9.97;;
13463;SDS011;6804;48.774;9.174;2022-12-16T07:09:51;15.33;;;10.33;;
13463;SDS011;6804;48.774;9.174;2022-12-16T07:12:36;15.37;;;10.40;;
13463;SDS011;6804;48.774;9.174;2022-12-16T07:15:38;17.27;;;10.27;;
13463;SDS011;6804;48.774;9.174;2022-12-16T07:18:26;16.20;;;10.60;;
13463;SDS011;6804;48.774;9.174;2022-12-16T07:21:12;15.40;;;10.03;;
13463;SDS011;6804;48.774;9.174;2022-12-16T07:23:59;15.30;;;10.60;;
13463;SDS011;6804;48.774;9.174;2022-12-16T07:26:46;15.10;;;10.13;;
13463;SDS011;6804;48.774;9.174;2022-12-16T07:29:30;15.30;;;9.93;;
13463;SDS011;6804;48.774;9.174;2022-12-16T07:32:15;13.17;;;9.77;;
13463;SDS011;6804;48.774;9.174;2022-12-16T07:35:05;15.53;;;9.97;;
13463;SDS011;6804;48.774;9.174;2022-12-16T07:37:50;15.80;;;10.83;;
13463;SDS011;6804;48.774;9.174;2022-12-16T07:40:38;15.47;;;9.73;;
13463;SDS011;6804;48.774;9.174;2022-12-16T07:43:23;14.40;;;9.73;;
13463;SDS011;6804;48.774;9.174;2022-12-16T07:46:14;14.40;;;10.43;;
13463;SDS011;6804;48.774;9.174;2022-12-16T07:49:02;16.33;;;10.10;;
13463;SDS011;6804;48.774;9.174;2022-12-16T07:51:46;16.47;;;9.43;;
13463;SDS011;6804;48.774;9.174;2022-12-16T07:54:31;16.43;;;9.57;;
13463;SDS011;6804;48.774;9.174;2022-12-16T07:57:20;17.90;;;10.07;;
13463;SDS011;6804;48.774;9.174;2022-12-16T08:00:05;13.63;;;9.87;;
13463;SDS011;6804;48.774;9.174;2022-12-16T08:02:51;12.50;;;8.33;;
13463;SDS011;6804;48.774;9.174;2022-12-16T08:05:36;12.23;;;8.73;;
13463;SDS011;6804;48.774;9.174;2022-12-16T08:08:21;12.43;;;8.73;;
13463;SDS011;6804;48.774;9.174;2022-12-16T08:11:06;11.30;;;8.03;;
13463;SDS011;6804;48.774;9.174;2022-12-16T08:13:55;13.13;;;8.90;;
13463;SDS011;6804;48.774;9.174;2022-12-16T08:16:42;12.93;;;8.70;;
13463;SDS011;6804;48.774;9.174;2022-12-16T08:19:27;14.20;;;8.53;;
13463;SDS011;6804;48.774;9.174;2022-12-16T08:22:14;11.67;;;8.00;;
13463;SDS011;6804;48.774;9.174;2022-12-16T08:24:58;10.97;;;7.60;;
13463;SDS011;6804;48.774;9.174;2022-12-16T08:27:57;14.23;;;9.00;;
13463;SDS011;6804;48.774;9.174;2022-12-16T08:30:43;14.43;;;9.63;;
13463;SDS011;6804;48.774;9.174;2022-12-16T08:33:35;12.17;;;8.40;;
13463;SDS011;6804;48.774;9.174;2022-12-16T08:36:20;12.77;;;8.63;;
13463;SDS011;6804;48.774;9.174;2022-12-16T08:39:05;14.07;;;8.57;;
13463;SDS011;6804;48.774;9.174;2022-12-16T08:41:53;13.57;;;8.60;;
13463;SDS011;6804;48.774;9.174;2022-12-16T08:44:37;17.10;;;10.70;;
13463;SDS011;6804;48.774;9.174;2022-12-16T08:47:26;13.93;;;9.10;;
13463;SDS011;6804;48.774;9.174;2022-12-16T08:50:11;13.83;;;9.70;;
13463;SDS011;6804;48.774;9.174;2022-12-16T08:53:13;14.03;;;8.73;;
13463;SDS011;6804;48.774;9.174;2022-12-16T08:55:57;14.90;;;8.87;;
13463;SDS011;6804;48.774;9.174;2022-12-16T08:58:45;12.10;;;8.50;;
13463;SDS011;6804;48.774;9.174;2022-12-16T09:01:30;12.27;;;8.30;;
13463;SDS011;6804;48.774;9.174;2022-12-16T09:04:15;13.50;;;8.60;;
13463;SDS011;6804;48.774;9.174;2022-12-16T09:07:00;13.53;;;7.97;;
13463;SDS011;6804;48.774;9.174;2022-12-16T09:09:45;11.63;;;7.80;;
13463;SDS011;6804;48.774;9.174;2022-12-16T09:12:29;11.43;;;7.57;;
13463;SDS011;6804;48.774;9.174;2022-12-16T09:15:14;10.17;;;7.87;;
13463;SDS011;6804;48.774;9.174;2022-12-16T09:17:58;11.83;;;7.60;;
13463;SDS011;6804;48.774;9.174;2022-12-16T09:20:44;11.17;;;7.63;;
13463;SDS011;6804;48.774;9.174;2022-12-16T09:23:29;10.60;;;6.90;;
13463;SDS011;6804;48.774;9.174;2022-12-16T09:26:16;9.50;;;6.83;;
13463;SDS011;6804;48.774;9.174;2022-12-16T09:29:00;13.43;;;8.17;;
13463;SDS011;6804;48.774;9.174;2022-12-16T09:31:47;10.93;;;7.10;;
13463;SDS011;6804;48.774;9.174;2022-12-16T09:34:39;8.90;;;6.87;;
13463;SDS011;6804;48.774;9.174;2022-12-16T09:37:25;13.80;;;7.33;;
13463;SDS011;6804;48.774;9.174;2022-12-16T09:40:11;9.70;;;6.53;;
13463;SDS011;6804;48.774;9.174;2022-12-16T09:42:59;10.43;;;6.67;;
13463;SDS011;6804;48.774;9.174;2022-12-16T09:45:52;10.90;;;6.63;;
13463;SDS011;6804;48.774;9.174;2022-12-16T09:48:44;13.50;;;7.53;;
13463;SDS011;6804;48.774;9.174;2022-12-16T09:51:37;8.80;;;6.70;;
13463;SDS011;6804;48.774;9.174;2022-12-16T09:54:27;9.47;;;6.60;;
13463;SDS011;6804;48.774;9.174;2022-12-16T09:57:14;8.37;;;6.60;;
13463;SDS011;6804;48.774;9.174;2022-12-16T10:00:00;7.90;;;6.53;;
13463;SDS011;6804;48.774;9.174;2022-12-16T10:02:48;9.87;;;6.93;;
13463;SDS011;6804;48.774;9.174;2022-12-16T10:05:35;9.10;;;7.00;;
13463;SDS011;6804;48.774;9.174;2022-12-16T10:08:30;10.33;;;7.17;;
13463;SDS011;6804;48.774;9.174;2022-12-16T10:11:27;9.70;;;6.87;;
13463;SDS011;6804;48.774;9.174;2022-12-16T10:14:20;9.23;;;6.50;;
13463;SDS011;6804;48.774;9.174;2022-12-16T10:17:11;10.37;;;7.20;;
13463;SDS011;6804;48.774;9.174;2022-12-16T10:20:02;10.70;;;7.27;;
13463;SDS011;6804;48.774;9.174;2022-12-16T10:23:00;10.30;;;6.73;;
13463;SDS011;6804;48.774;9.174;2022-12-16T10:25:48;8.50;;;6.20;;
13463;SDS011;6804;48.774;9.174;2022-12-16T10:28:43;8.83;;;5.80;;
13463;SDS011;6804;48.774;9.174;2022-12-16T10:31:29;8.60;;;6.70;;
13463;SDS011;6804;48.774;9.174;2022-12-16T10:34:15;11.20;;;6.97;;
13463;SDS011;6804;48.774;9.174;2022-12-16T10:37:02;10.83;;;6.97;;
13463;SDS011;6804;48.774;9.174;2022-12-16T10:39:48;8.27;;;6.03;;
13463;SDS011;6804;48.774;9.174;2022-12-16T10:42:39;10.40;;;6.63;;
13463;SDS011;6804;48.774;9.174;2022-12-16T10:45:32;9.47;;;6.60;;
13463;SDS011;6804;48.774;9.174;2022-12-16T10:48:21;9.63;;;7.10;;
13463;SDS011;6804;48.774;9.174;2022-12-16T10:51:09;10.60;;;6.87;;
13463;SDS011;6804;48.774;9.174;2022-12-16T10:54:01;8.30;;;6.53;;
13463;SDS011;6804;48.774;9.174;2022-12-16T10:56:59;8.67;;;6.27;;
13463;SDS011;6804;48.774;9.174;2022-12-16T10:59:49;7.70;;;5.47;;
13463;SDS011;6804;48.774;9.174;2022-12-16T11:02:39;9.33;;;6.43;;
13463;SDS011;6804;48.774;9.174;2022-12-16T11:05:29;8.63;;;6.07;;
13463;SDS011;6804;48.774;9.174;2022-12-16T11:08:21;8.47;;;5.70;;
13463;SDS011;6804;48.774;9.174;2022-12-16T11:11:12;8.63;;;6.10;;
13463;SDS011;6804;48.774;9.174;2022-12-16T11:14:18;8.60;;;5.93;;
13463;SDS011;6804;48.774;9.174;2022-12-16T11:17:13;8.27;;;5.80;;
13463;SDS011;6804;48.774;9.174;2022-12-16T11:20:11;7.60;;;5.33;;
13463;SDS011;6804;48.774;9.174;2022-12-16T11:23:08;8.20;;;6.13;;
13463;SDS011;6804;48.774;9.174;2022-12-16T11:26:07;9.70;;;6.20;;
13463;SDS011;6804;48.774;9.174;2022-12-16T11:29:04;10.20;;;6.00;;
13463;SDS011;6804;48.774;9.174;2022-12-16T11:31:55;8.90;;;5.80;;
13463;SDS011;6804;48.774;9.174;2022-12-16T11:34:43;8.43;;;6.17;;
13463;SDS011;6804;48.774;9.174;2022-12-16T11:37:35;9.23;;;6.03;;
13463;SDS011;6804;48.774;9.174;2022-12-16T11:40:25;6.97;;;5.30;;
13463;SDS011;6804;48.774;9.174;2022-12-16T11:43:11;7.97;;;5.77;;
13463;SDS011;6804;48.774;9.174;2022-12-16T11:45:58;9.57;;;6.70;;
13463;SDS011;6804;48.774;9.174;2022-12-16T11:48:49;10.83;;;7.67;;
13463;SDS011;6804;48.774;9.174;2022-12-16T11:51:39;9.93;;;6.80;;
13463;SDS011;6804;48.774;9.174;2022-12-16T11:54:27;8.40;;;6.77;;
13463;SDS011;6804;48.774;9.174;2022-12-16T11:57:22;11.17;;;7.13;;
13463;SDS011;6804;48.774;9.174;2022-12-16T12:00:12;10.50;;;6.87;;
13463;SDS011;6804;48.774;9.174;2022-12-16T12:03:08;9.07;;;5.90;;
13463;SDS011;6804;48.774;9.174;2022-12-16T12:05:58;9.83;;;6.77;;
13463;SDS011;6804;48.774;9.174;2022-12-16T12:08:52;8.60;;;6.07;;
13463;SDS011;6804;48.774;9.174;2022-12-16T12:11:50;9.30;;;5.73;;
13463;SDS011;6804;48.774;9.174;2022-12-16T12:14:42;8.50;;;5.30;;
13463;SDS011;6804;48.774;9.174;2022-12-16T12:17:43;7.27;;;5.43;;
13463;SDS011;6804;48.774;9.174;2022-12-16T12:20:40;8.87;;;5.60;;
13463;SDS011;6804;48.774;9.174;2022-12-16T12:23:36;7.37;;;5.17;;
13463;SDS011;6804;48.774;9.174;2022-12-16T12:26:34;7.63;;;5.60;;
13463;SDS011;6804;48.774;9.174;2022-12-16T12:29:26;8.17;;;5.77;;
13463;SDS011;6804;48.774;9.174;2022-12-16T12:32:22;8.30;;;6.23;;
13463;SDS011;6804;48.774;9.174;2022-12-16T12:35:19;9.13;;;6.20;;
13463;SDS011;6804;48.774;9.174;2022-12-16T12:38:11;7.90;;;5.87;;
13463;SDS011;6804;48.774;9.174;2022-12-16T12:41:04;8.10;;;6.10;;
13463;SDS011;6804;48.774;9.174;2022-12-16T12:44:04;7.63;;;5.40;;
13463;SDS011;6804;48.774;9.174;2022-12-16T12:47:04;9.40;;;6.47;;
13463;SDS011;6804;48.774;9.174;2022-12-16T12:49:52;9.37;;;6.33;;
13463;SDS011;6804;48.774;9.174;2022-12-16T12:52:56;10.90;;;6.17;;
13463;SDS011;6804;48.774;9.174;2022-12-16T12:55:59;8.23;;;5.50;;
13463;SDS011;6804;48.774;9.174;2022-12-16T12:58:52;6.80;;;5.17;;
13463;SDS011;6804;48.774;9.174;2022-12-16T13:01:42;9.63;;;5.40;;
13463;SDS011;6804;48.774;9.174;2022-12-16T13:04:35;9.17;;;5.73;;
13463;SDS011;6804;48.774;9.174;2022-12-16T13:07:24;7.77;;;5.70;;
13463;SDS011;6804;48.774;9.174;2022-12-16T13:10:14;9.57;;;6.60;;
13463;SDS011;6804;48.774;9.174;2022-12-16T13:19:57;11.70;;;7.37;;
13463;SDS011;6804;48.774;9.174;2022-12-16T13:22:46;8.43;;;6.63;;
13463;SDS011;6804;48.774;9.174;2022-12-16T13:25:37;8.67;;;6.57;;
13463;SDS011;6804;48.774;9.174;2022-12-16T13:28:26;10.00;;;6.90;;
13463;SDS011;6804;48.774;9.174;2022-12-16T13:31:14;10.50;;;7.63;;
13463;SDS011;6804;48.774;9.174;2022-12-16T13:34:01;9.70;;;6.67;;
13463;SDS011;6804;48.774;9.174;2022-12-16T13:36:54;11.13;;;7.67;;
13463;SDS011;6804;48.774;9.174;2022-12-16T13:40:02;9.37;;;6.87;;
13463;SDS011;6804;48.774;9.174;2022-12-16T13:42:50;10.97;;;7.23;;
13463;SDS011;6804;48.774;9.174;2022-12-16T13:45:37;12.90;;;7.37;;
13463;SDS011;6804;48.774;9.174;2022-12-16T13:48:56;11.47;;;7.07;;
13463;SDS011;6804;48.774;9.174;2022-12-16T13:52:21;9.03;;;7.10;;
13463;SDS011;6804;48.774;9.174;2022-12-16T13:55:18;11.67;;;7.83;;
13463;SDS011;6804;48.774;9.174;2022-12-16T13:58:10;12.83;;;7.97;;
13463;SDS011;6804;48.774;9.174;2022-12-16T14:01:05;12.63;;;8.00;;
13463;SDS011;6804;48.774;9.174;2022-12-16T14:03:57;10.00;;;6.97;;
13463;SDS011;6804;48.774;9.174;2022-12-16T14:06:43;9.73;;;6.30;;
13463;SDS011;6804;48.774;9.174;2022-12-16T14:09:31;9.67;;;6.53;;
13463;SDS011;6804;48.774;9.174;2022-12-16T14:12:29;10.50;;;7.20;;
13463;SDS011;6804;48.774;9.174;2022-12-16T14:15:26;10.00;;;5.80;;
13463;SDS011;6804;48.774;9.174;2022-12-16T14:18:19;10.97;;;6.40;;
13463;SDS011;6804;48.774;9.174;2022-12-16T14:21:15;12.07;;;6.83;;
13463;SDS011;6804;48.774;9.174;2022-12-16T14:24:07;9.77;;;6.40;;
13463;SDS011;6804;48.774;9.174;2022-12-16T14:26:58;10.70;;;6.63;;
13463;SDS011;6804;48.774;9.174;2022-12-16T14:29:48;8.20;;;5.70;;
13463;SDS011;6804;48.774;9.174;2022-12-16T14:32:36;8.23;;;6.30;;
13463;SDS011;6804;48.774;9.174;2022-12-16T14:35:22;9.23;;;6.60;;
13463;SDS011;6804;48.774;9.174;2022-12-16T14:38:13;11.00;;;7.80;;
13463;SDS011;6804;48.774;9.174;2022-12-16T14:41:11;7.97;;;6.10;;
13463;SDS011;6804;48.774;9.174;2022-12-16T14:43:59;9.93;;;6.80;;
13463;SDS011;6804;48.774;9.174;2022-12-16T14:46:49;8.97;;;6.53;;
13463;SDS011;6804;48.774;9.174;2022-12-16T14:49:52;11.00;;;6.73;;
13463;SDS011;6804;48.774;9.174;2022-12-16T14:52:40;9.97;;;6.80;;
13463;SDS011;6804;48.774;9.174;2022-12-16T14:55:26;9.50;;;6.77;;
13463;SDS011;6804;48.774;9.174;2022-12-16T14:58:13;8.63;;;6.20;;
13463;SDS011;6804;48.774;9.174;2022-12-16T15:01:01;9.37;;;6.77;;
13463;SDS011;6804;48.774;9.174;2022-12-16T15:03:55;10.00;;;6.30;;
13463;SDS011;6804;48.774;9.174;2022-12-16T15:06:41;10.90;;;6.70;;
13463;SDS011;6804;48.774;9.174;2022-12-16T15:09:29;9.43;;;6.17;;
13463;SDS011;6804;48.774;9.174;2022-12-16T15:12:19;11.10;;;7.00;;
13463;SDS011;6804;48.774;9.174;2022-12-16T15:15:13;8.23;;;5.97;;
13463;SDS011;6804;48.774;9.174;2022-12-16T15:18:02;8.20;;;6.30;;
13463;SDS011;6804;48.774;9.174;2022-12-16T15:20:48;8.60;;;6.10;;
13463;SDS011;6804;48.774;9.174;2022-12-16T15:23:37;8.23;;;6.63;;
13463;SDS011;6804;48.774;9.174;2022-12-16T15:26:27;9.93;;;6.40;;
13463;SDS011;6804;48.774;9.174;2022-12-16T15:29:27;8.60;;;6.57;;
13463;SDS011;6804;48.774;9.174;2022-12-16T15:32:25;9.80;;;5.80;;
13463;SDS011;6804;48.774;9.174;2022-12-16T15:35:23;9.03;;;6.57;;
13463;SDS011;6804;48.774;9.174;2022-12-16T15:38:11;8.67;;;6.57;;
13463;SDS011;6804;48.774;9.174;2022-12-16T15:41:00;7.80;;;6.53;;
13463;SDS011;6804;48.774;9.174;2022-12-16T15:43:55;8.60;;;5.90;;
13463;SDS011;6804;48.774;9.174;2022-12-16T15:46:51;11.93;;;6.87;;
13463;SDS011;6804;48.774;9.174;2022-12-16T15:49:39;9.73;;;6.77;;
13463;SDS011;6804;48.774;9.174;2022-12-16T15:52:32;10.23;;;5.93;;
13463;SDS011;6804;48.774;9.174;2022-12-16T15:55:34;8.53;;;6.00;;
13463;SDS011;6804;48.774;9.174;2022-12-16T15:58:23;9.87;;;6.53;;
13463;SDS011;6804;48.774;9.174;2022-12-16T16:01:12;9.27;;;6.10;;
13463;SDS011;6804;48.774;9.174;2022-12-16T16:03:58;9.57;;;6.30;;
13463;SDS011;6804;48.774;9.174;2022-12-16T16:06:44;9.47;;;7.00;;
13463;SDS011;6804;48.774;9.174;2022-12-16T16:09:39;9.57;;;6.13;;
13463;SDS011;6804;48.774;9.174;2022-12-16T16:12:24;9.77;;;6.67;;
13463;SDS011;6804;48.774;9.174;2022-12-16T16:15:10;10.33;;;7.33;;
13463;SDS011;6804;48.774;9.174;2022-12-16T16:17:57;10.53;;;6.73;;
13463;SDS011;6804;48.774;9.174;2022-12-16T16:20:43;13.03;;;7.10;;
13463;SDS011;6804;48.774;9.174;2022-12-16T16:23:31;10.20;;;6.87;;
13463;SDS011;6804;48.774;9.174;2022-12-16T16:26:18;8.53;;;6.67;;
13463;SDS011;6804;48.774;9.174;2022-12-16T16:29:04;8.17;;;5.63;;
13463;SDS011;6804;48.774;9.174;2022-12-16T16:31:50;8.87;;;6.37;;
13463;SDS011;6804;48.774;9.174;2022-12-16T16:34:41;11.70;;;7.43;;
13463;SDS011;6804;48.774;9.174;2022-12-16T16:37:26;9.23;;;7.23;;
13463;SDS011;6804;48.774;9.174;2022-12-16T16:40:14;11.23;;;7.17;;